sensor_id;sensor_type;location;lat;lon;timestamp;P1;durP1;ratioP1;P2;durP2;ratioP2
5273;SDS011;56254;50.956;7.010;2023-02-13T00:00:19;21.80;;;10.20;;
5273;SDS011;56254;50.956;7.010;2023-02-13T00:03:02;22.50;;;11.10;;
5273;SDS011;56254;50.956;7.010;2023-02-13T00:05:28;23.10;;;10.67;;
5273;SDS011;56254;50.956;7.010;2023-02-13T00:07:53;22.60;;;10.70;;
5273;SDS011;56254;50.956;7.010;2023-02-13T00:13:09;23.67;;;11.20;;
5273;SDS011;56254;50.956;7.010;2023-02-13T00:15:35;21.93;;;10.30;;
5273;SDS011;56254;50.956;7.010;2023-02-13T00:21:00;21.70;;;11.20;;
5273;SDS011;56254;50.956;7.010;2023-02-13T00:23:36;25.50;;;11.80;;
5273;SDS011;56254;50.956;7.010;2023-02-13T00:26:09;21.03;;;10.40;;
5273;SDS011;56254;50.956;7.010;2023-02-13T00:28:37;24.90;;;11.90;;
5273;SDS011;56254;50.956;7.010;2023-02-13T00:31:13;21.90;;;11.40;;
5273;SDS011;56254;50.956;7.010;2023-02-13T00:33:41;23.80;;;10.47;;
5273;SDS011;56254;50.956;7.010;2023-02-13T00:38:34;19.80;;;10.80;;
5273;SDS011;56254;50.956;7.010;2023-02-13T00:41:01;22.40;;;10.63;;
5273;SDS011;56254;50.956;7.010;2023-02-13T00:43:28;22.30;;;11.80;;
5273;SDS011;56254;50.956;7.010;2023-02-13T00:45:53;21.73;;;10.80;;
5273;SDS011;56254;50.956;7.010;2023-02-13T00:48:19;24.00;;;9.60;;
5273;SDS011;56254;50.956;7.010;2023-02-13T00:50:45;22.37;;;11.07;;
5273;SDS011;56254;50.956;7.010;2023-02-13T00:53:11;20.50;;;11.00;;
5273;SDS011;56254;50.956;7.010;2023-02-13T00:55:38;23.20;;;11.60;;
5273;SDS011;56254;50.956;7.010;2023-02-13T00:58:03;23.13;;;11.33;;
5273;SDS011;56254;50.956;7.010;2023-02-13T01:00:29;20.90;;;10.40;;
5273;SDS011;56254;50.956;7.010;2023-02-13T01:02:55;20.30;;;9.40;;
5273;SDS011;56254;50.956;7.010;2023-02-13T01:05:20;23.50;;;11.37;;
5273;SDS011;56254;50.956;7.010;2023-02-13T01:07:46;22.57;;;10.60;;
5273;SDS011;56254;50.956;7.010;2023-02-13T01:10:12;21.23;;;10.10;;
5273;SDS011;56254;50.956;7.010;2023-02-13T01:12:37;21.80;;;10.47;;
5273;SDS011;56254;50.956;7.010;2023-02-13T01:15:04;23.87;;;10.37;;
5273;SDS011;56254;50.956;7.010;2023-02-13T01:17:30;18.47;;;9.73;;
5273;SDS011;56254;50.956;7.010;2023-02-13T01:19:56;21.30;;;10.00;;
5273;SDS011;56254;50.956;7.010;2023-02-13T01:22:21;17.63;;;9.87;;
5273;SDS011;56254;50.956;7.010;2023-02-13T01:24:47;22.50;;;10.00;;
5273;SDS011;56254;50.956;7.010;2023-02-13T01:27:13;21.30;;;10.33;;
5273;SDS011;56254;50.956;7.010;2023-02-13T01:29:38;20.93;;;9.47;;
5273;SDS011;56254;50.956;7.010;2023-02-13T01:32:04;15.60;;;9.10;;
5273;SDS011;56254;50.956;7.010;2023-02-13T01:34:31;22.80;;;10.60;;
5273;SDS011;56254;50.956;7.010;2023-02-13T01:36:57;17.07;;;9.90;;
5273;SDS011;56254;50.956;7.010;2023-02-13T01:39:23;26.53;;;10.50;;
5273;SDS011;56254;50.956;7.010;2023-02-13T01:41:49;18.80;;;10.30;;
5273;SDS011;56254;50.956;7.010;2023-02-13T01:46:51;24.33;;;11.00;;
5273;SDS011;56254;50.956;7.010;2023-02-13T01:49:18;21.07;;;10.50;;
5273;SDS011;56254;50.956;7.010;2023-02-13T01:51:47;17.00;;;10.10;;
5273;SDS011;56254;50.956;7.010;2023-02-13T01:54:17;21.20;;;10.30;;
5273;SDS011;56254;50.956;7.010;2023-02-13T01:56:54;20.00;;;9.70;;
5273;SDS011;56254;50.956;7.010;2023-02-13T01:59:30;22.00;;;10.90;;
5273;SDS011;56254;50.956;7.010;2023-02-13T02:02:03;17.50;;;9.90;;
5273;SDS011;56254;50.956;7.010;2023-02-13T02:04:32;19.93;;;9.60;;
5273;SDS011;56254;50.956;7.010;2023-02-13T02:07:02;16.07;;;9.97;;
5273;SDS011;56254;50.956;7.010;2023-02-13T02:09:32;19.30;;;10.10;;
5273;SDS011;56254;50.956;7.010;2023-02-13T02:12:03;15.73;;;9.57;;
5273;SDS011;56254;50.956;7.010;2023-02-13T02:14:46;19.67;;;8.60;;
5273;SDS011;56254;50.956;7.010;2023-02-13T02:17:12;16.20;;;9.30;;
5273;SDS011;56254;50.956;7.010;2023-02-13T02:25:07;15.67;;;9.30;;
5273;SDS011;56254;50.956;7.010;2023-02-13T02:33:44;17.50;;;10.37;;
5273;SDS011;56254;50.956;7.010;2023-02-13T02:47:51;18.50;;;10.30;;
5273;SDS011;56254;50.956;7.010;2023-02-13T02:56:17;17.27;;;9.33;;
5273;SDS011;56254;50.956;7.010;2023-02-13T02:59:00;18.83;;;10.37;;
5273;SDS011;56254;50.956;7.010;2023-02-13T03:01:55;19.73;;;10.63;;
5273;SDS011;56254;50.956;7.010;2023-02-13T03:04:45;15.73;;;9.10;;
5273;SDS011;56254;50.956;7.010;2023-02-13T03:07:31;16.87;;;9.53;;
5273;SDS011;56254;50.956;7.010;2023-02-13T03:10:02;16.10;;;9.97;;
5273;SDS011;56254;50.956;7.010;2023-02-13T03:13:06;23.67;;;9.50;;
5273;SDS011;56254;50.956;7.010;2023-02-13T03:15:48;16.10;;;9.20;;
5273;SDS011;56254;50.956;7.010;2023-02-13T03:18:40;14.83;;;9.93;;
5273;SDS011;56254;50.956;7.010;2023-02-13T03:25:03;17.53;;;10.17;;
5273;SDS011;56254;50.956;7.010;2023-02-13T03:33:37;16.30;;;9.53;;
5273;SDS011;56254;50.956;7.010;2023-02-13T03:36:23;17.33;;;11.23;;
5273;SDS011;56254;50.956;7.010;2023-02-13T03:39:25;17.03;;;9.30;;
5273;SDS011;56254;50.956;7.010;2023-02-13T03:41:57;19.10;;;9.40;;
5273;SDS011;56254;50.956;7.010;2023-02-13T03:44:27;25.90;;;9.97;;
5273;SDS011;56254;50.956;7.010;2023-02-13T03:47:07;16.50;;;9.50;;
5273;SDS011;56254;50.956;7.010;2023-02-13T03:49:36;20.50;;;10.40;;
5273;SDS011;56254;50.956;7.010;2023-02-13T03:54:57;17.93;;;10.50;;
5273;SDS011;56254;50.956;7.010;2023-02-13T03:57:47;20.90;;;11.10;;
5273;SDS011;56254;50.956;7.010;2023-02-13T04:00:45;20.07;;;10.07;;
5273;SDS011;56254;50.956;7.010;2023-02-13T04:03:16;19.13;;;10.17;;
5273;SDS011;56254;50.956;7.010;2023-02-13T04:06:12;19.40;;;11.33;;
5273;SDS011;56254;50.956;7.010;2023-02-13T04:08:46;17.87;;;10.10;;
5273;SDS011;56254;50.956;7.010;2023-02-13T04:12:01;18.90;;;11.13;;
5273;SDS011;56254;50.956;7.010;2023-02-13T04:14:04;18.60;;;10.87;;
5273;SDS011;56254;50.956;7.010;2023-02-13T04:16:45;18.27;;;10.83;;
5273;SDS011;56254;50.956;7.010;2023-02-13T04:19:17;20.27;;;10.87;;
5273;SDS011;56254;50.956;7.010;2023-02-13T04:21:44;19.70;;;10.90;;
5273;SDS011;56254;50.956;7.010;2023-02-13T04:24:18;18.00;;;11.43;;
5273;SDS011;56254;50.956;7.010;2023-02-13T04:26:44;18.70;;;11.20;;
5273;SDS011;56254;50.956;7.010;2023-02-13T04:29:10;18.47;;;10.70;;
5273;SDS011;56254;50.956;7.010;2023-02-13T04:31:36;20.03;;;11.83;;
5273;SDS011;56254;50.956;7.010;2023-02-13T04:34:02;21.93;;;12.17;;
5273;SDS011;56254;50.956;7.010;2023-02-13T04:36:28;18.80;;;10.73;;
5273;SDS011;56254;50.956;7.010;2023-02-13T04:38:53;18.03;;;9.73;;
5273;SDS011;56254;50.956;7.010;2023-02-13T04:41:19;19.80;;;11.30;;
5273;SDS011;56254;50.956;7.010;2023-02-13T04:43:45;26.03;;;11.23;;
5273;SDS011;56254;50.956;7.010;2023-02-13T04:46:12;21.40;;;11.63;;
5273;SDS011;56254;50.956;7.010;2023-02-13T04:48:38;24.13;;;12.00;;
5273;SDS011;56254;50.956;7.010;2023-02-13T04:51:04;18.67;;;11.63;;
5273;SDS011;56254;50.956;7.010;2023-02-13T04:53:30;22.40;;;12.20;;
5273;SDS011;56254;50.956;7.010;2023-02-13T04:55:55;21.93;;;12.47;;
5273;SDS011;56254;50.956;7.010;2023-02-13T04:58:21;21.83;;;11.77;;
5273;SDS011;56254;50.956;7.010;2023-02-13T05:00:46;22.60;;;11.53;;
5273;SDS011;56254;50.956;7.010;2023-02-13T05:03:12;21.03;;;12.67;;
5273;SDS011;56254;50.956;7.010;2023-02-13T05:05:38;20.80;;;11.83;;
5273;SDS011;56254;50.956;7.010;2023-02-13T05:08:05;23.13;;;12.20;;
5273;SDS011;56254;50.956;7.010;2023-02-13T05:10:31;27.33;;;13.57;;
5273;SDS011;56254;50.956;7.010;2023-02-13T05:12:57;28.33;;;13.47;;
5273;SDS011;56254;50.956;7.010;2023-02-13T05:15:23;25.30;;;11.90;;
5273;SDS011;56254;50.956;7.010;2023-02-13T05:17:49;20.17;;;11.37;;
5273;SDS011;56254;50.956;7.010;2023-02-13T05:20:15;18.63;;;11.60;;
5273;SDS011;56254;50.956;7.010;2023-02-13T05:22:44;21.23;;;12.03;;
5273;SDS011;56254;50.956;7.010;2023-02-13T05:25:31;24.83;;;11.60;;
5273;SDS011;56254;50.956;7.010;2023-02-13T05:27:57;21.10;;;11.63;;
5273;SDS011;56254;50.956;7.010;2023-02-13T05:30:23;21.43;;;12.40;;
5273;SDS011;56254;50.956;7.010;2023-02-13T05:32:49;22.77;;;12.47;;
5273;SDS011;56254;50.956;7.010;2023-02-13T05:35:19;23.80;;;12.10;;
5273;SDS011;56254;50.956;7.010;2023-02-13T05:37:45;18.37;;;11.13;;
5273;SDS011;56254;50.956;7.010;2023-02-13T05:40:11;20.23;;;11.40;;
5273;SDS011;56254;50.956;7.010;2023-02-13T05:42:38;21.03;;;12.77;;
5273;SDS011;56254;50.956;7.010;2023-02-13T05:45:04;22.87;;;11.70;;
5273;SDS011;56254;50.956;7.010;2023-02-13T05:47:30;21.03;;;11.97;;
5273;SDS011;56254;50.956;7.010;2023-02-13T05:49:56;19.93;;;11.30;;
5273;SDS011;56254;50.956;7.010;2023-02-13T05:52:22;21.70;;;11.50;;
5273;SDS011;56254;50.956;7.010;2023-02-13T05:54:48;24.43;;;12.33;;
5273;SDS011;56254;50.956;7.010;2023-02-13T05:57:13;26.00;;;13.63;;
5273;SDS011;56254;50.956;7.010;2023-02-13T05:59:39;24.33;;;12.67;;
5273;SDS011;56254;50.956;7.010;2023-02-13T06:02:04;30.80;;;12.70;;
5273;SDS011;56254;50.956;7.010;2023-02-13T06:04:30;29.43;;;13.47;;
5273;SDS011;56254;50.956;7.010;2023-02-13T06:06:56;20.90;;;12.50;;
5273;SDS011;56254;50.956;7.010;2023-02-13T06:09:21;24.43;;;12.17;;
5273;SDS011;56254;50.956;7.010;2023-02-13T06:11:47;26.67;;;14.13;;
5273;SDS011;56254;50.956;7.010;2023-02-13T06:14:13;26.80;;;13.37;;
5273;SDS011;56254;50.956;7.010;2023-02-13T06:16:39;25.93;;;13.17;;
5273;SDS011;56254;50.956;7.010;2023-02-13T06:19:05;22.73;;;11.90;;
5273;SDS011;56254;50.956;7.010;2023-02-13T06:21:31;28.03;;;14.50;;
5273;SDS011;56254;50.956;7.010;2023-02-13T06:24:01;23.93;;;13.27;;
5273;SDS011;56254;50.956;7.010;2023-02-13T06:26:31;22.27;;;11.90;;
5273;SDS011;56254;50.956;7.010;2023-02-13T06:28:57;26.87;;;13.27;;
5273;SDS011;56254;50.956;7.010;2023-02-13T06:31:23;23.33;;;13.33;;
5273;SDS011;56254;50.956;7.010;2023-02-13T06:33:48;24.40;;;13.40;;
5273;SDS011;56254;50.956;7.010;2023-02-13T06:36:14;23.07;;;12.57;;
5273;SDS011;56254;50.956;7.010;2023-02-13T06:38:40;22.50;;;13.73;;
5273;SDS011;56254;50.956;7.010;2023-02-13T06:41:05;23.87;;;12.87;;
5273;SDS011;56254;50.956;7.010;2023-02-13T06:43:32;23.13;;;13.13;;
5273;SDS011;56254;50.956;7.010;2023-02-13T06:45:58;24.27;;;11.97;;
5273;SDS011;56254;50.956;7.010;2023-02-13T06:48:24;29.23;;;13.07;;
5273;SDS011;56254;50.956;7.010;2023-02-13T06:50:50;30.30;;;14.80;;
5273;SDS011;56254;50.956;7.010;2023-02-13T06:53:16;25.53;;;13.40;;
5273;SDS011;56254;50.956;7.010;2023-02-13T06:55:45;24.93;;;12.53;;
5273;SDS011;56254;50.956;7.010;2023-02-13T06:58:10;24.63;;;12.80;;
5273;SDS011;56254;50.956;7.010;2023-02-13T07:00:36;25.40;;;12.20;;
5273;SDS011;56254;50.956;7.010;2023-02-13T07:03:04;27.00;;;12.93;;
5273;SDS011;56254;50.956;7.010;2023-02-13T07:05:30;28.33;;;13.63;;
5273;SDS011;56254;50.956;7.010;2023-02-13T07:07:57;32.83;;;13.97;;
5273;SDS011;56254;50.956;7.010;2023-02-13T07:10:23;26.33;;;12.90;;
5273;SDS011;56254;50.956;7.010;2023-02-13T07:12:48;29.93;;;13.83;;
5273;SDS011;56254;50.956;7.010;2023-02-13T07:15:14;27.27;;;13.83;;
5273;SDS011;56254;50.956;7.010;2023-02-13T07:17:40;30.30;;;13.00;;
5273;SDS011;56254;50.956;7.010;2023-02-13T07:20:10;24.90;;;12.70;;
5273;SDS011;56254;50.956;7.010;2023-02-13T07:22:36;25.83;;;11.97;;
5273;SDS011;56254;50.956;7.010;2023-02-13T07:25:01;39.67;;;14.57;;
5273;SDS011;56254;50.956;7.010;2023-02-13T07:27:27;28.90;;;14.27;;
5273;SDS011;56254;50.956;7.010;2023-02-13T07:29:56;33.13;;;15.23;;
5273;SDS011;56254;50.956;7.010;2023-02-13T07:32:23;25.57;;;12.53;;
5273;SDS011;56254;50.956;7.010;2023-02-13T07:34:50;33.20;;;14.93;;
5273;SDS011;56254;50.956;7.010;2023-02-13T07:37:15;26.83;;;13.47;;
5273;SDS011;56254;50.956;7.010;2023-02-13T07:39:41;25.57;;;14.10;;
5273;SDS011;56254;50.956;7.010;2023-02-13T07:42:13;23.37;;;13.60;;
5273;SDS011;56254;50.956;7.010;2023-02-13T07:44:39;20.03;;;12.27;;
5273;SDS011;56254;50.956;7.010;2023-02-13T07:47:05;27.63;;;14.40;;
5273;SDS011;56254;50.956;7.010;2023-02-13T07:49:30;33.20;;;15.43;;
5273;SDS011;56254;50.956;7.010;2023-02-13T07:51:56;34.40;;;13.50;;
5273;SDS011;56254;50.956;7.010;2023-02-13T07:54:22;26.50;;;14.43;;
5273;SDS011;56254;50.956;7.010;2023-02-13T07:56:48;27.93;;;12.70;;
5273;SDS011;56254;50.956;7.010;2023-02-13T07:59:14;25.07;;;13.43;;
5273;SDS011;56254;50.956;7.010;2023-02-13T08:01:39;23.10;;;12.10;;
5273;SDS011;56254;50.956;7.010;2023-02-13T08:04:05;23.73;;;13.47;;
5273;SDS011;56254;50.956;7.010;2023-02-13T08:06:31;24.40;;;14.00;;
5273;SDS011;56254;50.956;7.010;2023-02-13T08:08:56;26.90;;;12.20;;
5273;SDS011;56254;50.956;7.010;2023-02-13T08:11:40;21.47;;;12.53;;
5273;SDS011;56254;50.956;7.010;2023-02-13T08:14:25;29.57;;;14.53;;
5273;SDS011;56254;50.956;7.010;2023-02-13T08:16:52;25.37;;;13.20;;
5273;SDS011;56254;50.956;7.010;2023-02-13T08:19:19;51.13;;;13.60;;
5273;SDS011;56254;50.956;7.010;2023-02-13T08:21:45;23.93;;;12.93;;
5273;SDS011;56254;50.956;7.010;2023-02-13T08:24:11;21.90;;;13.07;;
5273;SDS011;56254;50.956;7.010;2023-02-13T08:26:37;29.93;;;14.20;;
5273;SDS011;56254;50.956;7.010;2023-02-13T08:29:04;31.10;;;14.30;;
5273;SDS011;56254;50.956;7.010;2023-02-13T08:31:30;25.37;;;12.80;;
5273;SDS011;56254;50.956;7.010;2023-02-13T08:33:56;24.00;;;13.20;;
5273;SDS011;56254;50.956;7.010;2023-02-13T08:36:22;26.23;;;13.37;;
5273;SDS011;56254;50.956;7.010;2023-02-13T08:38:48;22.50;;;12.90;;
5273;SDS011;56254;50.956;7.010;2023-02-13T08:41:14;26.40;;;13.17;;
5273;SDS011;56254;50.956;7.010;2023-02-13T08:43:46;30.13;;;13.60;;
5273;SDS011;56254;50.956;7.010;2023-02-13T08:46:12;23.73;;;13.20;;
5273;SDS011;56254;50.956;7.010;2023-02-13T08:48:37;23.60;;;11.67;;
5273;SDS011;56254;50.956;7.010;2023-02-13T08:51:06;34.70;;;16.40;;
5273;SDS011;56254;50.956;7.010;2023-02-13T08:53:35;24.70;;;11.97;;
5273;SDS011;56254;50.956;7.010;2023-02-13T08:56:02;21.90;;;12.33;;
5273;SDS011;56254;50.956;7.010;2023-02-13T08:58:28;21.80;;;12.13;;
5273;SDS011;56254;50.956;7.010;2023-02-13T09:00:54;21.03;;;11.00;;
5273;SDS011;56254;50.956;7.010;2023-02-13T09:03:20;24.83;;;12.87;;
5273;SDS011;56254;50.956;7.010;2023-02-13T09:05:45;18.63;;;11.07;;
5273;SDS011;56254;50.956;7.010;2023-02-13T09:08:11;24.70;;;12.70;;
5273;SDS011;56254;50.956;7.010;2023-02-13T09:10:38;20.23;;;12.00;;
5273;SDS011;56254;50.956;7.010;2023-02-13T09:13:05;23.45;;;13.68;;
5273;SDS011;56254;50.956;7.010;2023-02-13T09:15:31;19.23;;;11.00;;
5273;SDS011;56254;50.956;7.010;2023-02-13T09:17:57;23.50;;;11.70;;
5273;SDS011;56254;50.956;7.010;2023-02-13T09:20:22;23.47;;;11.27;;
5273;SDS011;56254;50.956;7.010;2023-02-13T09:22:48;52.23;;;12.77;;
5273;SDS011;56254;50.956;7.010;2023-02-13T09:25:14;19.97;;;11.47;;
5273;SDS011;56254;50.956;7.010;2023-02-13T09:27:40;21.07;;;11.30;;
5273;SDS011;56254;50.956;7.010;2023-02-13T09:30:06;23.30;;;10.70;;
5273;SDS011;56254;50.956;7.010;2023-02-13T09:32:34;17.37;;;9.60;;
5273;SDS011;56254;50.956;7.010;2023-02-13T09:35:01;22.13;;;11.40;;
5273;SDS011;56254;50.956;7.010;2023-02-13T09:37:27;18.27;;;10.37;;
5273;SDS011;56254;50.956;7.010;2023-02-13T09:39:53;20.50;;;10.47;;
5273;SDS011;56254;50.956;7.010;2023-02-13T09:42:26;26.70;;;9.93;;
5273;SDS011;56254;50.956;7.010;2023-02-13T09:44:57;25.13;;;8.70;;
5273;SDS011;56254;50.956;7.010;2023-02-13T09:47:40;17.70;;;9.60;;
5273;SDS011;56254;50.956;7.010;2023-02-13T09:52:38;22.63;;;8.53;;
5273;SDS011;56254;50.956;7.010;2023-02-13T09:57:59;17.37;;;8.83;;
5273;SDS011;56254;50.956;7.010;2023-02-13T10:00:43;19.57;;;9.40;;
5273;SDS011;56254;50.956;7.010;2023-02-13T10:03:33;15.77;;;8.90;;
5273;SDS011;56254;50.956;7.010;2023-02-13T10:14:31;28.13;;;10.07;;
5273;SDS011;56254;50.956;7.010;2023-02-13T10:17:15;17.43;;;9.33;;
5273;SDS011;56254;50.956;7.010;2023-02-13T10:19:46;15.33;;;9.70;;
5273;SDS011;56254;50.956;7.010;2023-02-13T10:22:47;16.77;;;8.90;;
5273;SDS011;56254;50.956;7.010;2023-02-13T10:25:21;17.33;;;9.47;;
5273;SDS011;56254;50.956;7.010;2023-02-13T10:27:54;14.80;;;8.50;;
5273;SDS011;56254;50.956;7.010;2023-02-13T10:30:31;14.97;;;8.27;;
5273;SDS011;56254;50.956;7.010;2023-02-13T10:35:50;24.00;;;9.20;;
5273;SDS011;56254;50.956;7.010;2023-02-13T10:38:23;11.67;;;7.67;;
5273;SDS011;56254;50.956;7.010;2023-02-13T10:48:55;15.03;;;9.00;;
5273;SDS011;56254;50.956;7.010;2023-02-13T10:51:43;18.30;;;8.17;;
5273;SDS011;56254;50.956;7.010;2023-02-13T10:54:39;13.27;;;7.67;;
5273;SDS011;56254;50.956;7.010;2023-02-13T10:57:13;14.03;;;9.03;;
5273;SDS011;56254;50.956;7.010;2023-02-13T10:59:56;13.60;;;7.80;;
5273;SDS011;56254;50.956;7.010;2023-02-13T11:02:32;16.88;;;8.93;;
5273;SDS011;56254;50.956;7.010;2023-02-13T11:05:21;15.90;;;7.90;;
5273;SDS011;56254;50.956;7.010;2023-02-13T11:07:46;15.40;;;7.63;;
5273;SDS011;56254;50.956;7.010;2023-02-13T11:10:23;14.70;;;7.77;;
5273;SDS011;56254;50.956;7.010;2023-02-13T11:12:51;17.50;;;9.20;;
5273;SDS011;56254;50.956;7.010;2023-02-13T11:15:30;16.77;;;8.17;;
5273;SDS011;56254;50.956;7.010;2023-02-13T11:18:02;15.90;;;8.20;;
5273;SDS011;56254;50.956;7.010;2023-02-13T11:20:45;15.10;;;9.30;;
5273;SDS011;56254;50.956;7.010;2023-02-13T11:25:52;16.53;;;7.70;;
5273;SDS011;56254;50.956;7.010;2023-02-13T11:28:47;15.07;;;8.03;;
5273;SDS011;56254;50.956;7.010;2023-02-13T11:31:31;17.93;;;8.27;;
5273;SDS011;56254;50.956;7.010;2023-02-13T11:34:45;12.90;;;6.43;;
5273;SDS011;56254;50.956;7.010;2023-02-13T11:36:50;15.23;;;7.97;;
5273;SDS011;56254;50.956;7.010;2023-02-13T11:39:17;20.33;;;8.57;;
5273;SDS011;56254;50.956;7.010;2023-02-13T11:41:45;23.17;;;8.10;;
5273;SDS011;56254;50.956;7.010;2023-02-13T11:44:21;13.13;;;7.40;;
5273;SDS011;56254;50.956;7.010;2023-02-13T11:46:51;12.13;;;7.60;;
5273;SDS011;56254;50.956;7.010;2023-02-13T11:49:23;11.20;;;6.50;;
5273;SDS011;56254;50.956;7.010;2023-02-13T11:51:55;11.10;;;6.40;;
5273;SDS011;56254;50.956;7.010;2023-02-13T11:56:51;13.60;;;7.80;;
5273;SDS011;56254;50.956;7.010;2023-02-13T11:59:24;13.60;;;7.50;;
5273;SDS011;56254;50.956;7.010;2023-02-13T12:02:11;12.00;;;6.30;;
5273;SDS011;56254;50.956;7.010;2023-02-13T12:04:41;27.67;;;7.93;;
5273;SDS011;56254;50.956;7.010;2023-02-13T12:09:59;12.87;;;6.67;;
5273;SDS011;56254;50.956;7.010;2023-02-13T12:12:36;13.73;;;6.80;;
5273;SDS011;56254;50.956;7.010;2023-02-13T12:15:15;12.90;;;6.70;;
5273;SDS011;56254;50.956;7.010;2023-02-13T12:17:44;12.00;;;6.33;;
5273;SDS011;56254;50.956;7.010;2023-02-13T12:20:14;13.10;;;6.43;;
5273;SDS011;56254;50.956;7.010;2023-02-13T12:22:44;25.70;;;6.60;;
5273;SDS011;56254;50.956;7.010;2023-02-13T12:28:14;10.33;;;6.43;;
5273;SDS011;56254;50.956;7.010;2023-02-13T12:36:35;10.07;;;6.40;;
5273;SDS011;56254;50.956;7.010;2023-02-13T12:47:28;8.83;;;6.20;;
5273;SDS011;56254;50.956;7.010;2023-02-13T12:52:49;8.97;;;5.53;;
5273;SDS011;56254;50.956;7.010;2023-02-13T12:55:36;16.17;;;6.23;;
5273;SDS011;56254;50.956;7.010;2023-02-13T13:15:24;7.20;;;4.60;;
5273;SDS011;56254;50.956;7.010;2023-02-13T13:21:07;5.10;;;3.90;;
5273;SDS011;56254;50.956;7.010;2023-02-13T13:23:50;10.60;;;3.90;;
5273;SDS011;56254;50.956;7.010;2023-02-13T13:28:57;22.40;;;4.70;;
5273;SDS011;56254;50.956;7.010;2023-02-13T13:31:25;8.00;;;3.37;;
5273;SDS011;56254;50.956;7.010;2023-02-13T13:33:53;5.07;;;3.30;;
5273;SDS011;56254;50.956;7.010;2023-02-13T13:36:39;3.40;;;3.10;;
5273;SDS011;56254;50.956;7.010;2023-02-13T13:47:22;5.03;;;3.10;;
5273;SDS011;56254;50.956;7.010;2023-02-13T13:49:56;8.13;;;2.93;;
5273;SDS011;56254;50.956;7.010;2023-02-13T13:52:28;5.70;;;2.57;;
5273;SDS011;56254;50.956;7.010;2023-02-13T13:54:56;4.43;;;3.50;;
5273;SDS011;56254;50.956;7.010;2023-02-13T13:59:58;8.40;;;4.63;;
5273;SDS011;56254;50.956;7.010;2023-02-13T14:02:30;2.30;;;2.10;;
5273;SDS011;56254;50.956;7.010;2023-02-13T14:07:49;6.37;;;3.03;;
5273;SDS011;56254;50.956;7.010;2023-02-13T14:13:07;7.83;;;2.90;;
5273;SDS011;56254;50.956;7.010;2023-02-13T14:20:58;2.33;;;2.13;;
5273;SDS011;56254;50.956;7.010;2023-02-13T14:26:37;6.87;;;2.43;;
5273;SDS011;56254;50.956;7.010;2023-02-13T14:32:53;3.07;;;2.77;;
5273;SDS011;56254;50.956;7.010;2023-02-13T14:35:14;3.47;;;2.93;;
5273;SDS011;56254;50.956;7.010;2023-02-13T14:37:47;10.37;;;2.37;;
5273;SDS011;56254;50.956;7.010;2023-02-13T14:43:18;12.40;;;2.40;;
5273;SDS011;56254;50.956;7.010;2023-02-13T14:48:52;4.30;;;2.63;;
5273;SDS011;56254;50.956;7.010;2023-02-13T14:51:25;3.50;;;2.20;;
5273;SDS011;56254;50.956;7.010;2023-02-13T14:53:55;9.40;;;2.63;;
5273;SDS011;56254;50.956;7.010;2023-02-13T14:56:28;10.30;;;2.73;;
5273;SDS011;56254;50.956;7.010;2023-02-13T14:59:08;2.90;;;2.17;;
5273;SDS011;56254;50.956;7.010;2023-02-13T15:01:51;3.93;;;2.33;;
5273;SDS011;56254;50.956;7.010;2023-02-13T15:06:55;7.30;;;3.23;;
5273;SDS011;56254;50.956;7.010;2023-02-13T15:09:29;1.87;;;1.60;;
5273;SDS011;56254;50.956;7.010;2023-02-13T15:11:59;2.77;;;1.73;;
5273;SDS011;56254;50.956;7.010;2023-02-13T15:14:34;3.30;;;2.20;;
5273;SDS011;56254;50.956;7.010;2023-02-13T15:19:33;4.77;;;2.63;;
5273;SDS011;56254;50.956;7.010;2023-02-13T15:22:02;4.40;;;1.70;;
5273;SDS011;56254;50.956;7.010;2023-02-13T15:24:34;3.10;;;1.83;;
5273;SDS011;56254;50.956;7.010;2023-02-13T15:27:07;4.07;;;2.20;;
5273;SDS011;56254;50.956;7.010;2023-02-13T15:30:13;4.70;;;2.70;;
5273;SDS011;56254;50.956;7.010;2023-02-13T15:32:53;4.60;;;2.20;;
5273;SDS011;56254;50.956;7.010;2023-02-13T15:35:22;4.00;;;1.83;;
5273;SDS011;56254;50.956;7.010;2023-02-13T15:37:56;2.87;;;2.00;;
5273;SDS011;56254;50.956;7.010;2023-02-13T15:40:28;9.67;;;2.40;;
5273;SDS011;56254;50.956;7.010;2023-02-13T15:42:56;4.27;;;1.67;;
5273;SDS011;56254;50.956;7.010;2023-02-13T15:45:24;2.73;;;2.30;;
5273;SDS011;56254;50.956;7.010;2023-02-13T15:47:51;3.13;;;2.43;;
5273;SDS011;56254;50.956;7.010;2023-02-13T15:53:01;1.90;;;1.70;;
5273;SDS011;56254;50.956;7.010;2023-02-13T15:55:30;10.67;;;2.93;;
5273;SDS011;56254;50.956;7.010;2023-02-13T15:57:58;2.90;;;2.60;;
5273;SDS011;56254;50.956;7.010;2023-02-13T16:00:32;3.53;;;2.60;;
5273;SDS011;56254;50.956;7.010;2023-02-13T16:03:01;2.30;;;2.07;;
5273;SDS011;56254;50.956;7.010;2023-02-13T16:05:32;4.60;;;2.17;;
5273;SDS011;56254;50.956;7.010;2023-02-13T16:08:23;2.87;;;1.97;;
5273;SDS011;56254;50.956;7.010;2023-02-13T16:10:50;1.90;;;1.60;;
5273;SDS011;56254;50.956;7.010;2023-02-13T16:21:50;15.47;;;2.00;;
5273;SDS011;56254;50.956;7.010;2023-02-13T16:24:17;2.37;;;2.07;;
5273;SDS011;56254;50.956;7.010;2023-02-13T16:26:48;3.83;;;2.00;;
5273;SDS011;56254;50.956;7.010;2023-02-13T16:29:22;3.17;;;2.10;;
5273;SDS011;56254;50.956;7.010;2023-02-13T16:31:50;6.97;;;2.40;;
5273;SDS011;56254;50.956;7.010;2023-02-13T16:34:25;8.10;;;2.13;;
5273;SDS011;56254;50.956;7.010;2023-02-13T16:36:53;2.80;;;1.70;;
5273;SDS011;56254;50.956;7.010;2023-02-13T16:39:20;2.20;;;1.63;;
5273;SDS011;56254;50.956;7.010;2023-02-13T16:41:55;4.77;;;2.40;;
5273;SDS011;56254;50.956;7.010;2023-02-13T16:46:52;2.70;;;2.50;;
5273;SDS011;56254;50.956;7.010;2023-02-13T16:49:32;5.17;;;1.90;;
5273;SDS011;56254;50.956;7.010;2023-02-13T16:52:10;7.30;;;1.90;;
5273;SDS011;56254;50.956;7.010;2023-02-13T16:55:00;4.30;;;2.20;;
5273;SDS011;56254;50.956;7.010;2023-02-13T16:57:35;2.60;;;2.23;;
5273;SDS011;56254;50.956;7.010;2023-02-13T17:00:05;8.57;;;1.73;;
5273;SDS011;56254;50.956;7.010;2023-02-13T17:02:47;8.03;;;2.63;;
5273;SDS011;56254;50.956;7.010;2023-02-13T17:05:22;5.40;;;3.20;;
5273;SDS011;56254;50.956;7.010;2023-02-13T17:07:52;2.60;;;2.40;;
5273;SDS011;56254;50.956;7.010;2023-02-13T17:10:26;12.90;;;2.97;;
5273;SDS011;56254;50.956;7.010;2023-02-13T17:13:10;8.83;;;2.90;;
5273;SDS011;56254;50.956;7.010;2023-02-13T17:15:43;5.23;;;1.93;;
5273;SDS011;56254;50.956;7.010;2023-02-13T17:18:17;5.03;;;2.50;;
5273;SDS011;56254;50.956;7.010;2023-02-13T17:20:43;9.17;;;2.90;;
5273;SDS011;56254;50.956;7.010;2023-02-13T17:23:21;2.10;;;1.87;;
5273;SDS011;56254;50.956;7.010;2023-02-13T17:25:49;2.90;;;2.17;;
5273;SDS011;56254;50.956;7.010;2023-02-13T17:30:45;2.70;;;2.10;;
5273;SDS011;56254;50.956;7.010;2023-02-13T17:33:19;2.43;;;2.03;;
5273;SDS011;56254;50.956;7.010;2023-02-13T17:35:56;2.30;;;2.10;;
5273;SDS011;56254;50.956;7.010;2023-02-13T17:38:21;8.37;;;3.57;;
5273;SDS011;56254;50.956;7.010;2023-02-13T17:40:48;8.97;;;3.60;;
5273;SDS011;56254;50.956;7.010;2023-02-13T17:43:16;7.13;;;3.07;;
5273;SDS011;56254;50.956;7.010;2023-02-13T17:45:44;3.03;;;2.47;;
5273;SDS011;56254;50.956;7.010;2023-02-13T17:48:10;3.40;;;2.20;;
5273;SDS011;56254;50.956;7.010;2023-02-13T17:50:36;3.67;;;2.70;;
5273;SDS011;56254;50.956;7.010;2023-02-13T17:53:06;10.23;;;3.70;;
5273;SDS011;56254;50.956;7.010;2023-02-13T17:55:41;5.60;;;2.90;;
5273;SDS011;56254;50.956;7.010;2023-02-13T17:58:07;5.30;;;3.20;;
5273;SDS011;56254;50.956;7.010;2023-02-13T18:00:32;10.53;;;3.20;;
5273;SDS011;56254;50.956;7.010;2023-02-13T18:02:59;15.03;;;3.47;;
5273;SDS011;56254;50.956;7.010;2023-02-13T18:05:25;6.80;;;4.03;;
5273;SDS011;56254;50.956;7.010;2023-02-13T18:07:52;7.33;;;4.07;;